Time;durP1;ratioP1;P1;durP2;ratioP2;P2;SDS_P1;SDS_P2;PMS_P1;PMS_P2;Temp;Humidity;BMP_temperature;BMP_pressure;BME280_temperature;BME280_humidity;BME280_pressure;Samples;Min_cycle;Max_cycle;Signal;HPM_P1;HPM_P2
2022/01/27 00:01:30;;;;;;;7.72;6.93;;;;;;;18.80;45.63;101618.84;4987013;28;20038;-41
2022/01/27 00:06:38;;;;;;;9.40;7.93;;;;;;;18.81;45.33;101612.56;4987243;28;20375;-42
2022/01/27 00:09:16;;;;;;;10.50;8.82;;;;;;;18.82;45.11;101613.41;4986297;28;20096;-40
2022/01/27 00:11:45;;;;;;;10.75;8.30;;;;;;;18.80;45.01;101604.81;4976720;28;20050;-42
2022/01/27 00:14:12;;;;;;;9.63;8.35;;;;;;;18.80;44.78;101608.28;4984453;28;20018;-41
2022/01/27 00:16:41;;;;;;;9.02;8.13;;;;;;;18.79;44.60;101617.22;4978630;28;20062;-39
2022/01/27 00:19:09;;;;;;;8.93;7.60;;;;;;;18.80;44.63;101612.75;4982223;28;20061;-42
2022/01/27 00:21:34;;;;;;;8.45;7.35;;;;;;;18.78;44.41;101610.28;4962310;28;20081;-42
2022/01/27 00:24:00;;;;;;;10.07;7.78;;;;;;;18.78;44.45;101615.56;4969304;28;20375;-42
2022/01/27 00:26:26;;;;;;;7.78;6.38;;;;;;;18.77;44.49;101613.09;4983644;28;20030;-41
2022/01/27 00:28:51;;;;;;;7.35;6.38;;;;;;;18.76;44.64;101612.25;4968219;28;20034;-43
2022/01/27 00:31:20;;;;;;;10.35;7.60;;;;;;;18.74;44.46;101618.72;4982669;28;20038;-40
2022/01/27 00:33:47;;;;;;;8.70;7.82;;;;;;;18.74;44.30;101622.16;4987018;28;20034;-41
2022/01/27 00:36:13;;;;;;;7.75;6.95;;;;;;;18.72;44.33;101633.88;4986873;28;20050;-39
2022/01/27 00:38:38;;;;;;;8.90;8.00;;;;;;;18.70;44.26;101627.94;4983457;28;20790;-39
2022/01/27 00:41:04;;;;;;;8.55;7.00;;;;;;;18.69;44.28;101618.38;4981481;28;20023;-43
2022/01/27 00:43:30;;;;;;;10.85;7.93;;;;;;;18.67;44.20;101617.72;4986394;28;20026;-39
2022/01/27 00:45:56;;;;;;;6.63;5.93;;;;;;;18.65;44.26;101615.25;4979046;28;20512;-43
2022/01/27 00:48:21;;;;;;;9.43;7.32;;;;;;;18.63;44.07;101617.25;4987103;28;20022;-40
2022/01/27 00:51:00;;;;;;;8.70;7.18;;;;;;;18.62;44.08;101612.97;4985783;28;20129;-42
2022/01/27 00:53:40;;;;;;;9.95;7.13;;;;;;;18.60;44.15;101612.31;4983997;28;20551;-42
2022/01/27 00:56:18;;;;;;;7.30;6.50;;;;;;;18.59;44.04;101605.34;4968521;28;20026;-42
2022/01/27 01:01:13;;;;;;;8.93;7.28;;;;;;;18.58;43.62;101583.41;4982750;28;20437;-39
2022/01/27 01:03:43;;;;;;;6.82;5.78;;;;;;;18.66;45.25;101589.69;4981086;28;20038;-40
2022/01/27 01:12:10;;;;;;;6.00;5.40;;;;;;;18.70;45.20;101575.97;4972072;28;20205;-39
2022/01/27 01:14:39;;;;;;;6.90;5.97;;;;;;;18.70;45.21;101583.06;4981789;28;20140;-42
2022/01/27 01:33:09;;;;;;;7.57;5.65;;;;;;;18.58;44.66;101596.59;4975017;28;20544;-40
2022/01/27 01:35:48;;;;;;;6.50;5.90;;;;;;;18.57;44.66;101591.50;4962701;28;20034;-42
2022/01/27 01:38:19;;;;;;;5.20;4.70;;;;;;;18.56;44.59;101593.31;4967028;28;20038;-37
2022/01/27 01:40:51;;;;;;;6.80;5.82;;;;;;;18.54;44.55;101581.28;4989448;28;20030;-40
2022/01/27 01:43:17;;;;;;;6.65;5.63;;;;;;;18.53;44.54;101584.91;4988742;28;20034;-44
2022/01/27 01:45:44;;;;;;;8.45;6.78;;;;;;;18.53;44.44;101582.25;4988738;28;20026;-37
2022/01/27 01:48:09;;;;;;;8.13;6.22;;;;;;;18.52;44.41;101578.81;4990351;28;20022;-38
2022/01/27 01:50:36;;;;;;;7.82;6.38;;;;;;;18.51;44.38;101589.53;4975732;28;20035;-39
2022/01/27 01:53:03;;;;;;;7.15;6.07;;;;;;;18.50;44.38;101585.25;4983819;28;20080;-43
2022/01/27 01:55:30;;;;;;;6.32;5.70;;;;;;;18.49;44.23;101588.88;4989527;28;20493;-42
2022/01/27 01:57:57;;;;;;;6.50;5.80;;;;;;;18.47;44.30;101589.03;4986360;28;20588;-41
2022/01/27 02:00:24;;;;;;;6.45;5.68;;;;;;;18.46;44.18;101587.41;4988161;28;20030;-41
2022/01/27 02:02:50;;;;;;;6.88;6.18;;;;;;;18.47;44.07;101590.84;4984865;28;20165;-41
2022/01/27 02:05:16;;;;;;;7.07;5.60;;;;;;;18.45;44.20;101593.66;4989020;28;20124;-43
2022/01/27 02:08:16;;;;;;;6.30;5.45;;;;;;;18.41;44.03;101578.38;4983021;28;20478;-41
2022/01/27 02:18:45;;;;;;;9.40;7.30;;;;;;;18.46;43.98;101573.38;5009465;28;20045;-41
2022/01/27 02:21:11;;;;;;;8.43;6.53;;;;;;;18.47;44.03;101573.22;5009560;28;20034;-40
2022/01/27 02:23:36;;;;;;;9.57;7.68;;;;;;;18.48;43.86;101577.50;5009769;28;20049;-40
2022/01/27 02:26:01;;;;;;;7.60;6.88;;;;;;;18.48;43.89;101571.38;5009658;28;20195;-44
2022/01/27 02:28:27;;;;;;;7.25;6.50;;;;;;;18.48;43.80;101555.56;5009547;28;20022;-40
2022/01/27 02:30:52;;;;;;;8.23;7.20;;;;;;;18.48;43.82;101559.03;5008761;28;20436;-40
2022/01/27 02:33:32;;;;;;;7.35;6.65;;;;;;;18.46;43.65;101560.19;5009750;28;20026;-40
2022/01/27 02:35:57;;;;;;;6.85;5.60;;;;;;;18.47;43.73;101560.00;5009439;28;20034;-42
2022/01/27 02:38:23;;;;;;;6.15;5.53;;;;;;;18.48;43.50;101561.66;5009323;28;20052;-42
2022/01/27 02:40:57;;;;;;;6.25;5.65;;;;;;;18.48;43.56;101566.94;5008873;28;20490;-42
2022/01/27 02:43:23;;;;;;;6.65;5.97;;;;;;;18.46;43.88;101563.66;5003274;28;20058;-39
2022/01/27 02:46:09;;;;;;;6.85;6.15;;;;;;;18.41;43.32;101566.00;5009389;28;20343;-43
2022/01/27 02:48:34;;;;;;;6.53;5.82;;;;;;;18.41;43.62;101559.91;5008087;28;20384;-40
2022/01/27 02:51:00;;;;;;;6.82;6.13;;;;;;;18.39;43.37;101561.88;5007998;28;20760;-40
2022/01/27 02:53:25;;;;;;;5.82;5.22;;;;;;;18.37;43.40;101550.66;5007067;28;20030;-41
2022/01/27 02:55:51;;;;;;;7.05;5.97;;;;;;;18.35;43.33;101555.28;5008887;28;20050;-39
2022/01/27 02:58:17;;;;;;;6.20;5.20;;;;;;;18.34;43.39;101548.38;5008240;28;20469;-41
2022/01/27 03:00:42;;;;;;;7.20;5.53;;;;;;;18.33;43.43;101549.34;5008376;28;20475;-42
2022/01/27 03:03:08;;;;;;;6.38;5.60;;;;;;;18.31;43.34;101546.06;5008482;28;20017;-45
2022/01/27 03:05:34;;;;;;;7.68;6.75;;;;;;;18.31;43.36;101546.06;5008857;28;20033;-41
2022/01/27 03:08:00;;;;;;;7.07;5.68;;;;;;;18.28;43.21;101549.88;5008313;28;20409;-40
2022/01/27 03:10:30;;;;;;;6.07;5.43;;;;;;;18.27;43.20;101552.66;5008856;28;20041;-43
2022/01/27 03:12:59;;;;;;;8.02;6.20;;;;;;;18.26;43.25;101546.56;4989931;28;20137;-40
2022/01/27 03:15:26;;;;;;;7.03;5.72;;;;;;;18.26;43.34;101535.19;4991051;28;20037;-43
2022/01/27 03:17:52;;;;;;;6.40;5.78;;;;;;;18.26;43.19;101551.03;5008134;28;20648;-41
2022/01/27 03:20:18;;;;;;;7.60;5.40;;;;;;;18.27;43.14;101544.75;5008393;28;20022;-42
2022/01/27 03:22:43;;;;;;;6.60;5.50;;;;;;;18.24;43.21;101533.53;5007265;28;20042;-42
2022/01/27 03:25:09;;;;;;;7.85;6.53;;;;;;;18.24;43.11;101544.09;5008423;28;20121;-40
2022/01/27 03:27:35;;;;;;;7.20;6.50;;;;;;;18.23;43.01;101537.19;5008574;28;20030;-47
2022/01/27 03:30:00;;;;;;;5.95;5.38;;;;;;;18.23;43.05;101531.06;5008793;28;20024;-43
2022/01/27 03:32:27;;;;;;;7.32;6.45;;;;;;;18.22;42.95;101540.81;5008651;28;20026;-43
2022/01/27 03:34:53;;;;;;;8.75;7.03;;;;;;;18.23;42.89;101544.25;4990480;28;20026;-41
2022/01/27 03:37:18;;;;;;;7.50;6.38;;;;;;;18.23;42.87;101547.72;5008504;28;20041;-42
2022/01/27 03:39:44;;;;;;;7.00;6.30;;;;;;;18.24;42.87;101546.72;5008257;28;20331;-45
2022/01/27 03:42:10;;;;;;;7.53;6.35;;;;;;;18.23;42.92;101547.72;5008073;28;20124;-43
2022/01/27 03:44:36;;;;;;;8.32;6.80;;;;;;;18.23;42.86;101542.44;5008479;28;20025;-41
2022/01/27 03:47:02;;;;;;;7.57;6.72;;;;;;;18.23;43.07;101550.38;5008081;28;20477;-42
2022/01/27 03:49:28;;;;;;;7.63;6.72;;;;;;;18.22;42.86;101554.00;5008447;28;20026;-41
2022/01/27 03:51:58;;;;;;;8.38;6.38;;;;;;;18.22;42.91;101556.63;5008074;28;20053;-43
2022/01/27 03:54:24;;;;;;;6.82;6.10;;;;;;;18.21;42.99;101554.97;5006865;28;20119;-40
2022/01/27 03:56:49;;;;;;;7.28;6.18;;;;;;;18.20;42.90;101553.34;5006613;28;20072;-45
2022/01/27 03:59:15;;;;;;;5.97;5.38;;;;;;;18.19;42.73;101554.31;5007129;28;20527;-41
2022/01/27 04:01:40;;;;;;;5.90;5.25;;;;;;;18.16;42.90;101548.56;5007090;28;20057;-40
2022/01/27 04:04:06;;;;;;;6.50;5.80;;;;;;;18.14;42.82;101561.91;5007244;28;20038;-42
2022/01/27 04:06:38;;;;;;;6.28;5.60;;;;;;;18.13;42.78;101555.00;5007611;28;20022;-43
2022/01/27 04:09:05;;;;;;;5.95;5.20;;;;;;;18.12;42.68;101558.63;5005982;28;20034;-40
2022/01/27 04:11:31;;;;;;;7.13;6.13;;;;;;;18.12;42.62;101566.53;5006913;28;20021;-40
2022/01/27 04:13:57;;;;;;;6.60;5.72;;;;;;;18.10;42.65;101565.88;5005762;28;20103;-44
2022/01/27 04:16:23;;;;;;;6.25;5.65;;;;;;;18.09;42.63;101571.31;5007314;28;20465;-39
2022/01/27 04:18:48;;;;;;;8.00;6.03;;;;;;;18.09;42.61;101569.50;5006470;28;20508;-41
2022/01/27 04:21:15;;;;;;;8.10;6.25;;;;;;;18.08;42.46;101559.94;5007200;28;20030;-43
2022/01/27 04:23:41;;;;;;;6.70;6.03;;;;;;;18.08;42.54;101561.75;5006446;28;20197;-42
2022/01/27 04:26:07;;;;;;;6.90;6.03;;;;;;;18.07;42.52;101563.56;5006628;28;20041;-41
2022/01/27 04:28:35;;;;;;;6.78;5.93;;;;;;;18.05;42.52;101560.28;4989059;28;20257;-41
2022/01/27 04:31:04;;;;;;;8.15;6.53;;;;;;;18.05;42.47;101556.81;4992667;28;20149;-42
2022/01/27 04:33:32;;;;;;;7.75;6.95;;;;;;;18.05;42.52;101556.81;4988422;28;20024;-41
2022/01/27 04:36:00;;;;;;;6.80;5.43;;;;;;;18.04;42.43;101563.06;5006508;28;20038;-42
2022/01/27 04:38:43;;;;;;;8.13;6.88;;;;;;;18.03;42.41;101562.25;5005260;28;20026;-42
2022/01/27 04:44:24;;;;;;;6.13;5.50;;;;;;;17.98;42.39;101564.56;4945050;29;20658;-43
2022/01/27 04:46:53;;;;;;;6.30;5.50;;;;;;;17.98;42.41;101564.56;4963799;28;20544;-42
2022/01/27 04:49:19;;;;;;;7.80;6.95;;;;;;;18.00;42.48;101567.03;4947518;28;20034;-42
2022/01/27 04:51:45;;;;;;;7.90;7.05;;;;;;;18.02;42.39;101572.97;4964637;28;20045;-45
2022/01/27 04:56:42;;;;;;;8.13;7.28;;;;;;;18.03;42.30;101566.69;4963985;28;20042;-42
2022/01/27 04:59:17;;;;;;;8.60;6.80;;;;;;;18.04;42.20;101563.06;4947718;28;20050;-42
2022/01/27 05:01:51;;;;;;;9.90;7.35;;;;;;;18.03;42.20;101566.69;4948432;28;20143;-41
2022/01/27 05:04:19;;;;;;;8.15;7.20;;;;;;;18.03;42.13;101574.63;4964389;28;20123;-40
2022/01/27 05:06:49;;;;;;;7.85;7.00;;;;;;;18.04;42.12;101578.91;4963592;28;20354;-45
2022/01/27 05:09:14;;;;;;;8.32;6.55;;;;;;;18.04;42.14;101582.38;4948208;28;20031;-39
2022/01/27 05:12:31;;;;;;;6.05;5.40;;;;;;;18.04;42.16;101589.44;4963049;28;20046;-47
2022/01/27 05:14:28;;;;;;;6.78;6.07;;;;;;;18.01;42.11;101589.78;4956322;28;20954;-42
2022/01/27 05:16:54;;;;;;;6.88;6.15;;;;;;;18.01;42.12;101592.41;4964273;28;20141;-41
2022/01/27 05:19:20;;;;;;;6.82;5.90;;;;;;;18.02;42.05;101584.34;4986630;28;20204;-42
2022/01/27 05:21:46;;;;;;;6.78;5.93;;;;;;;18.04;42.08;101590.28;5006418;28;20022;-43
2022/01/27 05:24:12;;;;;;;8.57;5.88;;;;;;;18.07;42.04;101595.22;5005834;28;20100;-41
2022/01/27 05:26:38;;;;;;;10.60;5.95;;;;;;;18.12;42.30;101595.53;5006531;28;20044;-44
2022/01/27 05:29:04;;;;;;;7.97;5.72;;;;;;;18.14;42.27;101596.19;5006397;28;20442;-41
2022/01/27 05:31:30;;;;;;;7.97;5.40;;;;;;;18.16;42.28;101593.41;4988824;28;20031;-41
2022/01/27 05:33:56;;;;;;;6.72;6.03;;;;;;;18.18;42.33;101600.16;5006762;28;20034;-40
2022/01/27 05:36:21;;;;;;;6.15;5.55;;;;;;;18.19;42.42;101596.53;5006815;28;20037;-41
2022/01/27 05:38:47;;;;;;;7.53;4.88;;;;;;;18.22;42.38;101595.38;5005956;28;20111;-42
2022/01/27 05:41:14;;;;;;;6.55;5.85;;;;;;;18.23;42.57;101597.84;5006609;28;20026;-39
2022/01/27 05:43:40;;;;;;;7.97;5.90;;;;;;;18.26;42.50;101591.41;5006242;28;20096;-42
2022/01/27 05:46:06;;;;;;;6.13;5.53;;;;;;;18.30;42.36;101589.25;5006329;28;20765;-43
2022/01/27 05:48:31;;;;;;;6.55;5.10;;;;;;;18.32;42.41;101588.09;5006379;28;20025;-42
2022/01/27 05:50:57;;;;;;;6.03;5.43;;;;;;;18.35;42.41;101577.22;5006224;28;20131;-41
2022/01/27 05:53:24;;;;;;;7.78;6.07;;;;;;;18.39;42.42;101583.00;5006426;28;20105;-41
2022/01/27 05:55:49;;;;;;;8.10;6.00;;;;;;;18.42;42.48;101587.94;4988715;28;20152;-42
2022/01/27 05:58:15;;;;;;;7.28;5.57;;;;;;;18.45;42.37;101584.91;5005645;28;20440;-43
2022/01/27 06:00:40;;;;;;;6.35;5.28;;;;;;;18.48;42.15;101585.41;5004554;28;20045;-41
2022/01/27 06:03:06;;;;;;;6.65;5.03;;;;;;;18.52;42.36;101589.34;5015472;28;20149;-43
2022/01/27 06:05:33;;;;;;;5.80;5.20;;;;;;;18.54;42.26;101595.28;5008762;28;20101;-43
2022/01/27 06:07:58;;;;;;;6.72;5.47;;;;;;;18.58;42.18;101593.13;4988083;28;20143;-41
2022/01/27 06:10:25;;;;;;;6.15;5.28;;;;;;;18.60;41.96;101580.63;5016501;28;20046;-41
2022/01/27 06:12:56;;;;;;;6.32;5.70;;;;;;;18.64;42.13;101583.75;5003510;28;20070;-42
2022/01/27 06:15:22;;;;;;;6.90;5.63;;;;;;;18.67;42.19;101581.59;4986067;28;20046;-40
2022/01/27 06:17:48;;;;;;;5.63;4.93;;;;;;;18.70;42.04;101586.53;5005549;28;20030;-42
2022/01/27 06:20:14;;;;;;;5.70;5.20;;;;;;;18.73;41.97;101580.91;5011908;28;20038;-41
2022/01/27 06:22:40;;;;;;;6.72;5.65;;;;;;;18.75;41.80;101578.94;5003703;28;20061;-41
2022/01/27 06:25:07;;;;;;;5.72;5.13;;;;;;;18.78;42.04;101591.78;5016102;28;20076;-46
2022/01/27 06:27:32;;;;;;;6.75;5.88;;;;;;;18.79;41.64;101589.97;5007846;28;20155;-40
2022/01/27 06:29:58;;;;;;;6.38;5.53;;;;;;;18.80;41.99;101592.44;5005905;28;20065;-41
2022/01/27 06:32:24;;;;;;;6.35;5.38;;;;;;;18.80;41.87;101600.38;5008650;28;20026;-39
2022/01/27 06:34:49;;;;;;;5.75;5.15;;;;;;;18.82;41.96;101601.03;5007404;28;20117;-45
2022/01/27 06:37:15;;;;;;;5.63;4.97;;;;;;;18.82;41.90;101603.66;5008141;28;20033;-40
2022/01/27 06:39:40;;;;;;;5.97;4.85;;;;;;;18.85;41.93;101610.41;5008140;28;20491;-41
2022/01/27 06:42:07;;;;;;;6.18;5.35;;;;;;;18.88;41.90;101612.72;5008286;28;20030;-41
2022/01/27 06:44:33;;;;;;;7.03;5.47;;;;;;;18.88;41.75;101616.19;5002834;28;20021;-43
2022/01/27 06:46:59;;;;;;;5.68;5.10;;;;;;;18.88;41.71;101624.09;5010380;28;20067;-40
2022/01/27 06:49:25;;;;;;;6.88;6.18;;;;;;;18.92;41.90;101621.91;5007016;28;20056;-42
2022/01/27 06:51:50;;;;;;;5.97;5.38;;;;;;;18.92;41.80;101623.75;5007921;28;20284;-47
2022/01/27 06:54:17;;;;;;;6.53;5.78;;;;;;;18.94;41.92;101616.47;5008378;28;20022;-40
2022/01/27 06:56:43;;;;;;;8.27;6.28;;;;;;;18.95;41.85;101618.94;5013444;28;20041;-42
2022/01/27 06:59:08;;;;;;;5.88;4.97;;;;;;;18.97;41.59;101619.59;4991525;28;20038;-41
2022/01/27 07:01:34;;;;;;;5.60;4.95;;;;;;;18.97;41.54;101627.50;5006200;28;20401;-39
2022/01/27 07:03:59;;;;;;;5.25;4.75;;;;;;;18.99;41.57;101627.34;4989723;28;20033;-41
2022/01/27 07:06:25;;;;;;;5.78;5.20;;;;;;;19.01;41.44;101625.34;5009860;28;20102;-42
2022/01/27 07:08:50;;;;;;;5.97;5.38;;;;;;;18.99;41.42;101607.03;5005222;28;20042;-42
2022/01/27 07:11:16;;;;;;;6.53;4.88;;;;;;;19.01;41.48;101612.97;5006697;28;20037;-42
2022/01/27 07:13:42;;;;;;;6.35;5.25;;;;;;;19.02;41.32;101606.69;5005859;28;20064;-39
2022/01/27 07:16:08;;;;;;;5.82;5.15;;;;;;;19.04;41.39;101612.63;5005796;28;20026;-42
2022/01/27 07:18:34;;;;;;;6.68;5.50;;;;;;;19.07;41.35;101609.66;5013299;28;20520;-43
2022/01/27 07:20:59;;;;;;;5.28;4.72;;;;;;;19.10;41.23;101616.41;5005790;28;20060;-42
2022/01/27 07:23:25;;;;;;;7.10;5.88;;;;;;;19.12;41.20;101617.88;5008526;28;20228;-42
2022/01/27 07:25:50;;;;;;;6.32;5.10;;;;;;;19.14;41.16;101620.34;5005659;28;20564;-42
2022/01/27 07:28:16;;;;;;;7.28;5.45;;;;;;;19.16;41.39;101623.66;4989073;28;20026;-40
2022/01/27 07:30:42;;;;;;;7.75;5.57;;;;;;;19.17;41.27;101628.75;5008507;28;20033;-42
2022/01/27 07:33:07;;;;;;;7.05;5.72;;;;;;;19.17;41.22;101635.84;5006152;28;20030;-41
2022/01/27 07:35:33;;;;;;;10.10;4.97;;;;;;;19.15;41.31;101633.38;5006010;28;20239;-42
2022/01/27 07:37:58;;;;;;;5.47;4.70;;;;;;;19.13;41.34;101624.00;5007637;28;20250;-40
2022/01/27 07:40:24;;;;;;;6.05;4.55;;;;;;;19.11;41.17;101626.81;5014741;28;20045;-43
2022/01/27 07:42:49;;;;;;;5.70;4.85;;;;;;;19.09;41.33;101627.97;5007224;28;20030;-41
2022/01/27 07:45:15;;;;;;;5.57;5.07;;;;;;;19.06;41.35;101630.94;5011197;28;20599;-42
2022/01/27 07:47:40;;;;;;;5.95;4.65;;;;;;;19.04;41.34;101638.22;5015581;28;20458;-47
2022/01/27 07:50:06;;;;;;;5.72;4.32;;;;;;;18.99;41.43;101641.38;5002581;28;20037;-41
2022/01/27 07:52:32;;;;;;;5.53;4.45;;;;;;;18.95;41.69;101637.44;5006913;28;20030;-43
2022/01/27 07:54:57;;;;;;;5.63;5.07;;;;;;;18.94;41.82;101645.50;5005394;28;20060;-40
2022/01/27 07:57:23;;;;;;;7.60;5.07;;;;;;;18.90;41.76;101645.06;5008253;28;20030;-40
2022/01/27 07:59:48;;;;;;;5.38;4.75;;;;;;;18.88;41.76;101639.13;5007173;28;20432;-43
2022/01/27 08:02:14;;;;;;;6.63;5.95;;;;;;;18.88;42.16;101658.44;5006748;28;20080;-40
2022/01/27 08:04:39;;;;;;;7.60;6.40;;;;;;;18.92;42.19;101648.31;5006932;28;20435;-44
2022/01/27 08:07:05;;;;;;;8.82;7.03;;;;;;;18.96;42.52;101644.34;5006541;28;20034;-44
2022/01/27 08:09:31;;;;;;;12.80;10.85;;;;;;;19.08;45.92;101658.00;5005597;28;20441;-43
2022/01/27 08:11:57;;;;;;;9.30;7.07;;;;;;;19.10;45.28;101656.03;5005838;28;20393;-42
2022/01/27 08:14:22;;;;;;;8.32;6.65;;;;;;;19.05;44.46;101653.06;5005734;28;20034;-40
2022/01/27 08:16:48;;;;;;;13.63;6.90;;;;;;;19.00;44.09;101661.50;5007510;28;20041;-45
2022/01/27 08:19:13;;;;;;;6.80;6.10;;;;;;;18.96;43.77;101654.09;5007438;28;20503;-39
2022/01/27 08:21:39;;;;;;;9.55;6.70;;;;;;;18.92;43.71;101653.59;5002621;28;20079;-40
2022/01/27 08:24:05;;;;;;;10.93;6.85;;;;;;;18.93;43.57;101660.53;5003649;28;20040;-40
2022/01/27 08:26:40;;;;;;;7.88;5.75;;;;;;;18.94;43.15;101664.00;5009360;28;20452;-39
2022/01/27 08:29:20;;;;;;;8.73;6.03;;;;;;;18.93;43.20;101665.00;4988546;28;20162;-41
2022/01/27 08:32:06;;;;;;;14.80;7.32;;;;;;;18.96;43.89;101659.38;4986913;28;20026;-41
2022/01/27 08:34:39;;;;;;;12.32;6.68;;;;;;;18.98;44.52;101660.84;5006577;28;20030;-40
2022/01/27 08:37:10;;;;;;;12.32;7.10;;;;;;;18.96;45.05;101654.09;5001615;28;20567;-45
2022/01/27 08:39:36;;;;;;;12.18;5.85;;;;;;;18.94;44.68;101661.38;4985631;28;20486;-42
2022/01/27 08:42:03;;;;;;;7.07;5.53;;;;;;;18.90;44.66;101661.69;5005574;28;20025;-39
2022/01/27 08:44:28;;;;;;;8.82;5.95;;;;;;;18.89;44.51;101667.19;5003631;28;20140;-40
2022/01/27 08:46:54;;;;;;;7.35;5.45;;;;;;;18.89;44.41;101664.53;5003597;28;20105;-40
2022/01/27 08:49:23;;;;;;;10.05;6.53;;;;;;;18.88;44.10;101662.91;4987900;28;20437;-40
2022/01/27 08:51:48;;;;;;;6.72;5.72;;;;;;;18.87;43.90;101667.34;4987719;28;20073;-40
2022/01/27 08:54:14;;;;;;;7.72;5.75;;;;;;;18.85;43.59;101669.34;4988738;28;20117;-40
2022/01/27 08:56:40;;;;;;;9.25;5.93;;;;;;;18.84;43.57;101670.31;5008212;28;20440;-42
2022/01/27 08:59:05;;;;;;;10.45;7.13;;;;;;;18.81;43.63;101677.75;4991869;28;20054;-38
2022/01/27 09:01:31;;;;;;;8.88;5.82;;;;;;;18.76;43.66;101675.63;5001800;28;20057;-39
2022/01/27 09:03:57;;;;;;;7.22;5.60;;;;;;;18.73;43.61;101681.25;5003687;28;20531;-41
2022/01/27 09:06:23;;;;;;;6.10;5.47;;;;;;;18.72;43.35;101681.41;4989340;28;20477;-39
2022/01/27 09:08:50;;;;;;;7.60;6.50;;;;;;;18.70;43.43;101681.56;4987354;28;20793;-38
2022/01/27 09:11:16;;;;;;;7.45;5.65;;;;;;;18.69;43.65;101687.84;4983612;28;20168;-39
2022/01/27 09:13:42;;;;;;;10.90;5.88;;;;;;;18.69;43.58;101690.47;4986621;28;20057;-39
2022/01/27 09:16:09;;;;;;;6.47;4.85;;;;;;;18.71;43.50;101688.50;5003254;28;20026;-48
2022/01/27 09:18:36;;;;;;;8.52;6.05;;;;;;;18.72;43.53;101684.88;4987539;28;20481;-43
2022/01/27 09:21:07;;;;;;;18.50;6.43;;;;;;;18.72;43.77;101694.59;5006416;28;20036;-44
2022/01/27 09:23:33;;;;;;;9.85;5.68;;;;;;;18.70;43.90;101688.66;5007797;28;20231;-41
2022/01/27 09:26:04;;;;;;;13.27;6.65;;;;;;;18.68;43.53;101690.66;5004004;28;20329;-41
2022/01/27 09:28:30;;;;;;;20.75;7.30;;;;;;;18.66;43.67;101690.81;4978344;28;20135;-42
2022/01/27 09:30:56;;;;;;;14.25;6.50;;;;;;;18.68;43.60;101685.38;4983675;28;20038;-40
2022/01/27 09:33:21;;;;;;;17.33;7.50;;;;;;;18.66;43.54;101688.19;5004705;28;20030;-50
2022/01/27 09:35:47;;;;;;;12.40;8.60;;;;;;;18.63;43.46;101696.44;5001066;28;20033;-40
2022/01/27 09:38:13;;;;;;;8.50;6.57;;;;;;;18.59;43.09;101695.09;5013189;28;20048;-39
2022/01/27 09:40:38;;;;;;;10.98;8.50;;;;;;;18.57;43.10;101689.97;4995449;28;20038;-40
2022/01/27 09:43:05;;;;;;;14.95;7.97;;;;;;;18.56;43.06;101687.50;5007434;28;20033;-40
2022/01/27 09:45:37;;;;;;;10.07;7.45;;;;;;;18.56;43.04;101692.78;5007289;28;20417;-40
2022/01/27 09:48:12;;;;;;;11.90;8.27;;;;;;;18.55;42.75;101701.69;5004221;28;20033;-40
2022/01/27 09:53:22;;;;;;;11.75;8.10;;;;;;;18.55;42.46;101685.84;5006843;28;20531;-42
2022/01/27 09:55:48;;;;;;;12.52;7.20;;;;;;;18.55;42.66;101688.50;5008645;28;20066;-42
2022/01/27 09:58:14;;;;;;;11.30;6.40;;;;;;;18.55;42.78;101683.22;5005294;28;20541;-40
2022/01/27 10:00:39;;;;;;;8.10;6.95;;;;;;;18.54;42.96;101681.56;5006298;28;20026;-41
2022/01/27 10:03:13;;;;;;;9.68;6.75;;;;;;;18.52;43.06;101686.19;5002922;28;20064;-40
2022/01/27 10:05:41;;;;;;;6.82;5.93;;;;;;;18.52;42.95;101684.38;4999784;28;20033;-42
2022/01/27 10:08:19;;;;;;;12.63;7.22;;;;;;;18.48;43.14;101685.69;4992683;28;20120;-40
2022/01/27 10:10:47;;;;;;;8.18;6.40;;;;;;;18.50;43.09;101685.53;4993282;28;20502;-40
2022/01/27 10:13:36;;;;;;;6.75;5.32;;;;;;;18.47;43.01;101686.69;4989688;28;20148;-40
2022/01/27 10:16:02;;;;;;;8.45;6.28;;;;;;;18.48;43.30;101688.31;4992872;28;20042;-40
2022/01/27 10:18:35;;;;;;;8.18;7.15;;;;;;;18.46;43.26;101685.03;5011677;28;20168;-40
2022/01/27 10:21:04;;;;;;;7.80;6.15;;;;;;;18.47;43.22;101685.84;5001956;28;20038;-40
2022/01/27 10:23:33;;;;;;;9.30;8.02;;;;;;;18.46;43.32;101689.47;4987958;28;20033;-39
2022/01/27 10:26:14;;;;;;;10.77;7.75;;;;;;;18.42;43.29;101689.03;5003997;28;20153;-40
2022/01/27 10:31:20;;;;;;;9.98;7.53;;;;;;;18.41;43.14;101686.53;5006965;28;20030;-43
2022/01/27 10:34:03;;;;;;;8.45;7.30;;;;;;;18.37;43.19;101685.22;5005376;28;20042;-38
2022/01/27 10:36:44;;;;;;;9.95;7.43;;;;;;;18.36;43.64;101681.75;4987455;28;20110;-40
2022/01/27 10:39:18;;;;;;;9.65;8.05;;;;;;;18.38;43.91;101676.31;5004210;28;20560;-39
2022/01/27 10:42:07;;;;;;;11.10;8.02;;;;;;;18.35;43.98;101680.13;5007094;28;20123;-40
2022/01/27 10:44:43;;;;;;;9.05;7.90;;;;;;;18.35;43.67;101674.00;5006756;28;20037;-40
2022/01/27 10:47:18;;;;;;;7.35;5.82;;;;;;;18.33;44.13;101670.72;5004044;28;20180;-39
2022/01/27 10:49:51;;;;;;;7.78;6.15;;;;;;;18.34;43.95;101667.09;4991289;28;20029;-39
2022/01/27 10:52:32;;;;;;;8.95;6.00;;;;;;;18.33;43.88;101668.06;5009553;28;20054;-40
2022/01/27 10:55:05;;;;;;;8.88;6.47;;;;;;;18.33;43.84;101670.72;5007737;28;20034;-40
2022/01/27 10:57:30;;;;;;;7.35;6.55;;;;;;;18.34;44.05;101667.09;5000274;28;20038;-39
2022/01/27 11:00:07;;;;;;;8.05;5.20;;;;;;;18.34;44.53;101659.19;5007172;28;20033;-48
2022/01/27 11:03:07;;;;;;;12.23;6.28;;;;;;;18.33;44.61;101657.53;5003690;28;20275;-39
2022/01/27 11:05:41;;;;;;;13.68;6.15;;;;;;;18.33;44.53;101654.88;5011998;28;20453;-51
2022/01/27 11:08:07;;;;;;;9.40;5.28;;;;;;;18.35;44.45;101655.53;4989899;28;20096;-39
2022/01/27 11:10:33;;;;;;;10.27;6.55;;;;;;;18.36;44.74;101654.56;5013583;28;20049;-44
2022/01/27 11:12:59;;;;;;;9.80;6.03;;;;;;;18.36;45.21;101649.28;5007054;28;20046;-41
2022/01/27 11:15:25;;;;;;;10.45;6.85;;;;;;;18.37;46.11;101643.84;4988898;28;20026;-42
2022/01/27 11:17:52;;;;;;;9.57;7.38;;;;;;;18.52;48.20;101641.31;5006349;28;20339;-38
2022/01/27 11:27:54;;;;;;;13.88;9.07;;;;;;;18.88;52.91;101637.31;5002699;28;20033;-49
2022/01/27 11:30:32;;;;;;;21.25;9.60;;;;;;;18.87;54.56;101627.75;5007011;28;20510;-46
2022/01/27 11:33:08;;;;;;;14.15;9.23;;;;;;;18.89;55.88;101622.28;5004577;28;20032;-47
2022/01/27 11:35:33;;;;;;;;;;;;;;;18.86;57.21;101626.09;4988228;28;20372;-46
2022/01/27 11:38:03;;;;;;;13.95;8.98;;;;;;;18.88;55.20;101615.38;5003831;28;19960;-45
2022/01/27 11:40:45;;;;;;;14.55;9.75;;;;;;;18.89;56.86;101617.84;4985746;28;20048;-47
2022/01/27 11:43:12;;;;;;;15.52;8.90;;;;;;;18.90;56.20;101610.72;4988413;28;20044;-38
2022/01/27 11:45:46;;;;;;;17.63;8.48;;;;;;;18.90;56.36;101608.09;5002109;28;20021;-39
2022/01/27 11:48:14;;;;;;;16.95;9.85;;;;;;;18.91;57.13;101612.34;5004244;28;20253;-44
2022/01/27 11:51:13;;;;;;;19.80;8.95;;;;;;;18.93;58.61;101599.81;4985760;28;20156;-40
2022/01/27 11:53:49;;;;;;;20.98;10.05;;;;;;;18.97;59.48;101602.91;4990546;28;20053;-43
2022/01/27 11:56:23;;;;;;;9.80;8.57;;;;;;;18.99;60.63;101598.28;4986446;28;20087;-54
2022/01/27 11:59:08;;;;;;;15.57;8.77;;;;;;;18.94;59.36;101595.34;4984599;28;20750;-44
2022/01/27 12:01:35;;;;;;;12.80;7.75;;;;;;;18.96;57.75;101598.63;5001566;28;20802;-39
2022/01/27 12:04:11;;;;;;;16.35;9.52;;;;;;;19.03;56.75;101594.31;4974050;28;20034;-42
2022/01/27 12:06:39;;;;;;;16.63;9.85;;;;;;;19.17;57.71;101588.31;4994296;28;20106;-41
2022/01/27 12:09:19;;;;;;;13.45;9.65;;;;;;;19.26;57.32;101586.44;4983376;28;20032;-44
2022/01/27 12:11:47;;;;;;;14.45;9.60;;;;;;;19.28;57.59;101585.28;5004845;28;20034;-53
2022/01/27 12:14:14;;;;;;;11.85;8.48;;;;;;;19.28;57.85;101585.28;4987331;28;20065;-44
2022/01/27 12:16:53;;;;;;;15.45;8.70;;;;;;;19.27;59.19;101582.81;5008083;28;20037;-41
2022/01/27 12:19:19;;;;;;;10.75;8.00;;;;;;;19.19;58.66;101581.03;5002766;28;20351;-43
2022/01/27 12:21:51;;;;;;;14.52;8.93;;;;;;;19.25;57.75;101579.53;5008025;28;20508;-45
2022/01/27 12:24:28;;;;;;;10.18;8.88;;;;;;;19.41;57.41;101574.94;5005786;28;20034;-43